Time;durP1;ratioP1;P1;durP2;ratioP2;P2;SDS_P1;SDS_P2;PMS_P1;PMS_P2;Temp;Humidity;BMP_temperature;BMP_pressure;BME280_temperature;BME280_humidity;BME280_pressure;Samples;Min_cycle;Max_cycle;Signal;HPM_P1;HPM_P2
2022/04/23 00:02:03;;;;;;;12.77;10.23;;;7.30;99.90;;;;;;5222814;28;20288;-54
2022/04/23 00:04:34;;;;;;;13.43;11.73;;;7.30;99.90;;;;;;5221530;28;20183;-56
2022/04/23 00:07:05;;;;;;;16.60;10.37;;;7.30;99.90;;;;;;5232970;28;20877;-57
2022/04/23 00:09:35;;;;;;;14.00;11.10;;;7.30;99.90;;;;;;5226086;28;20183;-55
2022/04/23 00:12:06;;;;;;;13.43;10.80;;;7.30;99.90;;;;;;5239585;28;20674;-57
2022/04/23 00:14:37;;;;;;;11.50;10.30;;;7.20;99.90;;;;;;5218748;28;20247;-58
2022/04/23 00:17:08;;;;;;;13.13;10.60;;;7.20;99.90;;;;;;5221895;28;20465;-55
2022/04/23 00:19:40;;;;;;;13.10;10.97;;;7.20;99.90;;;;;;5224207;28;20221;-57
2022/04/23 00:22:11;;;;;;;14.77;11.57;;;7.20;99.90;;;;;;5221793;28;20500;-55
2022/04/23 00:24:42;;;;;;;13.50;10.70;;;7.20;99.90;;;;;;5222066;28;20517;-57
2022/04/23 00:27:12;;;;;;;13.17;11.77;;;7.10;99.90;;;;;;5224994;28;20203;-58
2022/04/23 00:29:43;;;;;;;13.33;10.80;;;7.10;99.90;;;;;;5218523;28;20853;-54
2022/04/23 00:32:13;;;;;;;12.73;10.83;;;7.00;99.90;;;;;;5218111;28;20545;-56
2022/04/23 00:34:44;;;;;;;15.07;11.60;;;7.00;99.90;;;;;;5218064;28;20203;-57
2022/04/23 00:37:14;;;;;;;16.90;11.50;;;7.00;99.90;;;;;;5217499;28;20195;-55
2022/04/23 00:39:46;;;;;;;13.10;11.50;;;6.90;99.90;;;;;;5221836;28;20187;-55
2022/04/23 00:42:17;;;;;;;11.87;10.33;;;6.90;99.90;;;;;;5235965;28;20202;-56
2022/04/23 00:44:47;;;;;;;18.13;11.43;;;6.80;99.90;;;;;;5220038;28;20465;-57
2022/04/23 00:47:22;;;;;;;15.80;12.07;;;6.80;99.90;;;;;;5219223;28;20512;-54
2022/04/23 00:49:53;;;;;;;17.30;11.67;;;6.80;99.90;;;;;;5220710;28;20528;-56
2022/04/23 00:52:24;;;;;;;12.57;10.97;;;6.80;99.90;;;;;;5216201;28;20510;-53
2022/04/23 00:54:55;;;;;;;13.30;11.90;;;6.80;99.90;;;;;;5218520;28;20188;-56
2022/04/23 00:57:26;;;;;;;14.17;10.97;;;6.80;99.90;;;;;;5217660;28;20468;-55
2022/04/23 00:59:57;;;;;;;18.77;11.00;;;6.70;99.90;;;;;;5221085;28;20468;-56
2022/04/23 01:02:27;;;;;;;15.40;11.67;;;6.70;99.90;;;;;;5219906;28;20180;-55
2022/04/23 01:04:58;;;;;;;11.70;10.50;;;6.60;99.90;;;;;;5224815;28;20491;-56
2022/04/23 01:07:29;;;;;;;13.30;11.37;;;6.60;99.90;;;;;;5224778;28;20198;-55
2022/04/23 01:09:59;;;;;;;13.77;11.37;;;6.60;99.90;;;;;;5220533;28;20175;-56
2022/04/23 01:12:31;;;;;;;15.00;11.37;;;6.60;99.90;;;;;;5223526;28;20474;-55
2022/04/23 01:15:06;;;;;;;15.33;12.50;;;6.60;99.90;;;;;;5222203;28;20268;-55
2022/04/23 01:17:37;;;;;;;13.60;12.07;;;6.50;99.90;;;;;;5221735;28;20830;-56
2022/04/23 01:20:09;;;;;;;13.07;11.60;;;6.50;99.90;;;;;;5216235;28;20889;-57
2022/04/23 01:22:42;;;;;;;18.20;12.83;;;6.50;99.90;;;;;;5220104;28;20434;-57
2022/04/23 01:25:14;;;;;;;14.80;12.27;;;6.50;99.90;;;;;;5219917;28;20442;-55
2022/04/23 01:27:45;;;;;;;12.73;11.40;;;6.40;99.90;;;;;;5220996;28;20930;-58
2022/04/23 01:30:16;;;;;;;14.93;12.47;;;6.40;99.90;;;;;;5230565;28;20438;-57
2022/04/23 01:32:47;;;;;;;16.43;11.87;;;6.40;99.90;;;;;;5219064;28;20441;-58
2022/04/23 01:35:17;;;;;;;15.40;13.03;;;6.40;99.90;;;;;;5218976;28;20185;-55
2022/04/23 01:37:48;;;;;;;15.00;12.10;;;6.40;99.90;;;;;;5222679;28;20206;-56
2022/04/23 01:40:19;;;;;;;21.47;12.53;;;6.30;99.90;;;;;;5224117;28;20204;-56
2022/04/23 01:42:50;;;;;;;13.53;12.10;;;6.30;99.90;;;;;;5220946;28;20202;-53
2022/04/23 01:45:20;;;;;;;13.87;12.30;;;6.20;99.90;;;;;;5225383;28;20439;-55
2022/04/23 01:47:51;;;;;;;18.00;13.20;;;6.30;99.90;;;;;;5232411;23;20229;-50
2022/04/23 01:50:22;;;;;;;23.30;12.37;;;6.30;99.90;;;;;;5223376;28;20189;-48
2022/04/23 01:52:52;;;;;;;15.03;12.23;;;6.20;99.90;;;;;;5224413;28;20212;-51
2022/04/23 01:55:23;;;;;;;18.30;13.43;;;6.20;99.90;;;;;;5221131;28;20183;-50
2022/04/23 01:57:53;;;;;;;22.23;13.87;;;6.20;99.90;;;;;;5224264;28;20270;-51
2022/04/23 02:00:24;;;;;;;12.67;11.37;;;6.20;99.90;;;;;;5224440;28;20700;-49
2022/04/23 02:02:57;;;;;;;16.40;12.57;;;6.20;99.90;;;;;;5217669;28;20201;-50
2022/04/23 02:05:27;;;;;;;15.07;12.50;;;6.20;99.90;;;;;;5223265;28;20174;-49
2022/04/23 02:07:58;;;;;;;14.70;12.17;;;6.20;99.90;;;;;;5216317;28;20486;-50
2022/04/23 02:10:28;;;;;;;18.30;12.93;;;6.20;99.90;;;;;;5218637;28;20186;-50
2022/04/23 02:12:59;;;;;;;14.97;13.43;;;6.20;99.90;;;;;;5218263;28;20232;-49
2022/04/23 02:15:30;;;;;;;16.20;12.07;;;6.20;99.90;;;;;;5221063;28;20188;-48
2022/04/23 02:18:00;;;;;;;14.70;11.53;;;6.20;99.90;;;;;;5223143;28;20599;-50
2022/04/23 02:20:31;;;;;;;13.27;11.50;;;6.10;99.90;;;;;;5216767;28;20478;-52
2022/04/23 02:23:03;;;;;;;15.37;12.13;;;6.10;99.90;;;;;;5232823;28;20178;-50
2022/04/23 02:25:36;;;;;;;14.40;12.33;;;6.10;99.90;;;;;;5219230;28;20418;-49
2022/04/23 02:28:07;;;;;;;22.90;12.00;;;6.10;99.90;;;;;;5218966;28;20460;-49
2022/04/23 02:30:38;;;;;;;17.53;12.87;;;6.10;99.90;;;;;;5219794;28;20434;-50
2022/04/23 02:33:08;;;;;;;16.70;12.40;;;6.10;99.90;;;;;;5215069;28;20185;-49
2022/04/23 02:35:39;;;;;;;15.10;12.40;;;6.10;99.90;;;;;;5207304;28;20444;-51
2022/04/23 02:38:10;;;;;;;17.83;12.87;;;6.10;99.90;;;;;;5220375;28;20292;-49
2022/04/23 02:40:40;;;;;;;17.97;12.30;;;6.10;99.90;;;;;;5220103;28;20534;-50
2022/04/23 02:43:12;;;;;;;13.53;12.13;;;6.00;99.90;;;;;;5221408;28;20173;-48
2022/04/23 02:45:44;;;;;;;15.13;12.00;;;6.10;99.90;;;;;;5223307;28;20180;-51
2022/04/23 02:48:15;;;;;;;16.83;11.90;;;6.00;99.90;;;;;;5225571;28;20466;-51
2022/04/23 02:50:46;;;;;;;19.97;12.30;;;6.00;99.90;;;;;;5221601;28;20471;-48
2022/04/23 02:53:16;;;;;;;13.30;11.70;;;5.90;99.90;;;;;;5216359;28;20502;-48
2022/04/23 02:55:47;;;;;;;16.50;13.63;;;5.90;99.90;;;;;;5216536;28;20183;-49
2022/04/23 02:58:18;;;;;;;20.13;14.23;;;5.90;99.90;;;;;;5221468;28;20313;-50
2022/04/23 03:00:49;;;;;;;16.40;12.87;;;5.80;99.90;;;;;;5216828;28;20232;-51
2022/04/23 03:03:20;;;;;;;15.20;12.97;;;5.80;99.90;;;;;;5221618;28;20419;-49
2022/04/23 03:05:53;;;;;;;19.87;14.40;;;5.80;99.90;;;;;;5221138;28;20218;-48
2022/04/23 03:08:24;;;;;;;18.50;13.07;;;5.80;99.90;;;;;;5221326;28;20848;-50
2022/04/23 03:10:55;;;;;;;21.70;13.60;;;5.80;99.90;;;;;;5233595;28;20492;-49
2022/04/23 03:13:25;;;;;;;17.13;13.83;;;5.70;99.90;;;;;;5219112;28;20437;-50
2022/04/23 03:15:56;;;;;;;15.57;12.83;;;5.70;99.90;;;;;;5219264;28;20187;-48
2022/04/23 03:18:26;;;;;;;22.17;12.70;;;5.70;99.90;;;;;;5217939;28;20718;-53
2022/04/23 03:20:58;;;;;;;16.77;13.00;;;5.70;99.90;;;;;;5218388;28;20204;-51
2022/04/23 03:23:28;;;;;;;18.43;13.47;;;5.70;99.90;;;;;;5213457;28;20179;-48
2022/04/23 03:25:59;;;;;;;18.30;12.67;;;5.70;99.90;;;;;;5213716;28;20444;-50
2022/04/23 03:28:31;;;;;;;16.40;12.77;;;5.70;99.90;;;;;;5220627;28;20299;-50
2022/04/23 03:31:05;;;;;;;21.27;13.90;;;5.70;99.90;;;;;;5221400;28;20838;-49
2022/04/23 03:33:35;;;;;;;20.40;14.30;;;5.70;99.90;;;;;;5222768;28;20940;-49
2022/04/23 03:36:06;;;;;;;18.67;12.57;;;5.60;99.90;;;;;;5218883;28;20448;-49
2022/04/23 03:38:36;;;;;;;17.30;13.47;;;5.60;99.90;;;;;;5216926;28;20213;-50
2022/04/23 03:41:07;;;;;;;26.40;13.87;;;5.60;99.90;;;;;;5217784;28;20302;-50
2022/04/23 03:43:38;;;;;;;17.00;14.80;;;5.60;99.90;;;;;;5216621;28;20180;-49
2022/04/23 03:46:09;;;;;;;21.97;14.23;;;5.60;99.90;;;;;;5223169;28;20522;-50
2022/04/23 03:48:39;;;;;;;17.27;13.83;;;5.60;99.90;;;;;;5216278;28;20306;-50
2022/04/23 03:51:10;;;;;;;20.03;14.40;;;5.70;99.90;;;;;;5224968;28;20213;-50
2022/04/23 03:53:40;;;;;;;14.27;12.40;;;5.60;99.90;;;;;;5218802;28;20184;-49
2022/04/23 03:56:11;;;;;;;21.10;14.10;;;5.60;99.90;;;;;;5222035;28;20188;-50
2022/04/23 03:58:43;;;;;;;19.17;14.50;;;5.60;99.90;;;;;;5224524;28;20227;-49
2022/04/23 04:01:13;;;;;;;17.37;14.03;;;5.70;99.90;;;;;;5221740;28;20218;-48
2022/04/23 04:03:44;;;;;;;25.97;16.10;;;5.70;99.90;;;;;;5222672;28;20449;-49
2022/04/23 04:06:14;;;;;;;23.20;15.27;;;5.70;99.90;;;;;;5221114;28;20194;-51
2022/04/23 04:08:50;;;;;;;17.57;13.63;;;5.70;99.90;;;;;;5222813;28;20209;-50
2022/04/23 04:11:20;;;;;;;17.27;13.53;;;5.70;99.90;;;;;;5225835;28;20189;-48
2022/04/23 04:13:53;;;;;;;18.90;14.03;;;5.70;99.90;;;;;;5222942;28;20973;-48
2022/04/23 04:16:23;;;;;;;22.90;16.00;;;5.80;99.90;;;;;;5217413;28;20256;-49
2022/04/23 04:18:54;;;;;;;18.47;13.70;;;5.90;99.90;;;;;;5232805;28;20483;-47
2022/04/23 04:21:24;;;;;;;15.10;12.50;;;5.90;99.90;;;;;;5220490;28;20586;-49
2022/04/23 04:23:56;;;;;;;21.73;14.90;;;6.00;99.90;;;;;;5220706;28;20184;-50
2022/04/23 04:26:27;;;;;;;23.63;15.80;;;5.90;99.90;;;;;;5219213;28;20515;-50
2022/04/23 04:28:57;;;;;;;18.83;13.43;;;5.90;99.90;;;;;;5215524;28;20436;-49
2022/04/23 04:34:21;;;;;;;18.47;14.40;;;5.70;99.90;;;;;;5222509;28;20317;-48
2022/04/23 04:36:59;;;;;;;20.03;14.63;;;5.70;99.90;;;;;;5236250;28;20980;-49
2022/04/23 04:39:30;;;;;;;18.63;14.53;;;5.70;99.90;;;;;;5221797;28;20436;-50
2022/04/23 04:42:01;;;;;;;18.63;13.70;;;5.70;99.90;;;;;;5226096;28;20478;-48
2022/04/23 04:44:32;;;;;;;17.17;13.30;;;5.80;99.90;;;;;;5215026;28;20442;-49
2022/04/23 04:47:04;;;;;;;18.60;12.83;;;6.30;99.90;;;;;;5220387;28;20615;-48
2022/04/23 04:49:39;;;;;;;20.57;13.30;;;6.60;99.90;;;;;;5221380;28;20440;-49
2022/04/23 04:52:09;;;;;;;18.77;13.00;;;7.00;99.90;;;;;;5220290;28;20947;-50
2022/04/23 04:54:40;;;;;;;15.50;12.10;;;7.40;99.90;;;;;;5225416;28;20527;-50
2022/04/23 04:57:11;;;;;;;17.13;13.10;;;7.90;99.90;;;;;;5213754;28;20206;-49
2022/04/23 04:59:41;;;;;;;16.13;11.90;;;8.30;99.90;;;;;;5213389;28;20199;-50
2022/04/23 05:02:12;;;;;;;15.03;11.47;;;8.80;99.90;;;;;;5211557;28;20676;-49
2022/04/23 05:04:42;;;;;;;18.57;11.60;;;9.30;99.90;;;;;;5231712;28;20329;-49
2022/04/23 05:07:13;;;;;;;16.20;13.40;;;9.20;99.90;;;;;;5222907;28;20253;-48
2022/04/23 05:09:43;;;;;;;17.20;13.00;;;9.00;99.90;;;;;;5226908;28;20186;-48
2022/04/23 05:12:14;;;;;;;13.60;11.60;;;9.00;99.90;;;;;;5210967;28;20183;-48
2022/04/23 05:14:44;;;;;;;15.37;12.63;;;9.20;99.90;;;;;;5219132;28;20187;-50
2022/04/23 05:17:15;;;;;;;16.97;11.80;;;10.00;99.90;;;;;;5219787;28;20194;-51
2022/04/23 05:19:45;;;;;;;15.27;11.80;;;11.50;95.70;;;;;;5218939;28;20184;-49
2022/04/23 05:22:16;;;;;;;13.87;10.80;;;12.70;86.50;;;;;;5217360;28;20284;-50
2022/04/23 05:24:46;;;;;;;13.73;10.90;;;13.80;69.00;;;;;;5220886;28;20175;-48
2022/04/23 05:27:17;;;;;;;12.60;9.33;;;14.50;59.60;;;;;;5221232;28;20206;-49
2022/04/23 05:29:47;;;;;;;18.80;10.80;;;15.30;56.40;;;;;;5221447;28;20621;-50
2022/04/23 05:32:18;;;;;;;12.00;10.43;;;15.90;53.30;;;;;;5216905;28;20282;-51
2022/04/23 05:34:48;;;;;;;16.53;10.37;;;16.60;49.90;;;;;;5218760;28;20273;-50
2022/04/23 05:37:19;;;;;;;13.17;10.07;;;16.90;48.40;;;;;;5219141;28;20608;-52
2022/04/23 05:39:49;;;;;;;13.03;9.90;;;17.40;46.70;;;;;;5224086;28;20198;-50
2022/04/23 05:42:20;;;;;;;9.97;9.00;;;17.50;44.90;;;;;;5223388;28;20319;-51
2022/04/23 05:44:50;;;;;;;12.30;9.60;;;17.50;44.40;;;;;;5236313;28;20194;-50
2022/04/23 05:47:21;;;;;;;11.20;10.07;;;17.60;44.50;;;;;;5221402;28;20275;-50
2022/04/23 05:49:51;;;;;;;11.70;9.90;;;17.90;43.90;;;;;;5222970;28;20325;-51
2022/04/23 05:52:22;;;;;;;10.73;9.43;;;18.30;43.00;;;;;;5218220;28;20178;-51
2022/04/23 05:54:52;;;;;;;17.33;8.73;;;18.70;42.20;;;;;;5234531;28;20262;-50
2022/04/23 05:57:23;;;;;;;14.73;9.37;;;18.60;41.50;;;;;;5198812;28;20203;-50
2022/04/23 05:59:55;;;;;;;9.70;8.10;;;18.80;41.30;;;;;;5240354;28;20198;-50
2022/04/23 06:02:26;;;;;;;10.40;8.53;;;19.00;40.80;;;;;;5221931;28;20190;-51
2022/04/23 06:04:56;;;;;;;12.30;9.10;;;19.40;39.80;;;;;;5219261;28;20949;-50
2022/04/23 06:07:27;;;;;;;11.90;8.43;;;19.60;39.30;;;;;;5217841;28;20206;-52
2022/04/23 06:09:57;;;;;;;9.97;8.77;;;19.70;39.00;;;;;;5212414;28;20595;-52
2022/04/23 06:12:28;;;;;;;11.67;8.60;;;20.00;38.40;;;;;;5235419;28;20183;-52
2022/04/23 06:14:59;;;;;;;12.67;9.03;;;20.50;37.80;;;;;;5206885;28;20524;-51
2022/04/23 06:17:29;;;;;;;9.77;8.20;;;20.60;37.00;;;;;;5218675;28;20268;-52
2022/04/23 06:20:01;;;;;;;9.30;8.30;;;20.50;36.90;;;;;;5219234;28;20183;-51
2022/04/23 06:22:32;;;;;;;10.10;9.00;;;20.40;36.90;;;;;;5223446;28;20202;-51
2022/04/23 06:25:02;;;;;;;10.03;8.63;;;20.20;37.00;;;;;;5221196;28;20434;-52
2022/04/23 06:27:33;;;;;;;13.60;10.30;;;20.30;36.80;;;;;;5216606;28;20420;-49
2022/04/23 06:30:06;;;;;;;11.07;8.50;;;20.50;36.60;;;;;;5220443;28;20240;-52
2022/04/23 06:32:38;;;;;;;11.07;8.90;;;20.30;36.50;;;;;;5215621;28;20176;-51
2022/04/23 06:35:09;;;;;;;9.27;8.07;;;20.40;36.50;;;;;;5221709;28;20870;-51
2022/04/23 06:37:41;;;;;;;14.37;9.77;;;20.30;36.40;;;;;;5224540;28;20461;-52
2022/04/23 06:40:13;;;;;;;9.53;8.50;;;20.60;36.10;;;;;;5236417;28;20768;-53
2022/04/23 06:42:43;;;;;;;9.00;8.10;;;19.90;36.00;;;;;;5203721;28;20528;-52
2022/04/23 06:45:14;;;;;;;11.80;8.47;;;19.50;37.50;;;;;;5214089;28;20514;-52
2022/04/23 06:47:44;;;;;;;10.17;8.13;;;19.30;37.90;;;;;;5213747;28;20214;-52
2022/04/23 06:50:15;;;;;;;11.77;8.37;;;19.70;37.90;;;;;;5215754;28;20190;-53
2022/04/23 06:52:45;;;;;;;12.97;8.67;;;20.70;37.10;;;;;;5228760;28;20179;-51
2022/04/23 06:55:16;;;;;;;8.80;8.00;;;21.70;35.50;;;;;;5224453;28;20186;-53
2022/04/23 06:57:47;;;;;;;8.70;7.90;;;22.10;34.30;;;;;;5213179;28;20204;-51
2022/04/23 07:00:17;;;;;;;12.10;7.60;;;22.10;34.40;;;;;;5220229;28;20543;-51
2022/04/23 07:02:50;;;;;;;11.13;9.63;;;22.20;34.60;;;;;;5230832;28;20207;-52
2022/04/23 07:05:21;;;;;;;9.27;8.37;;;22.60;33.50;;;;;;5215554;28;20182;-54
2022/04/23 07:08:00;;;;;;;12.00;8.20;;;22.80;33.50;;;;;;5210937;28;20462;-53
2022/04/23 07:10:32;;;;;;;8.83;8.00;;;22.80;32.80;;;;;;5228864;28;20838;-54
2022/04/23 07:13:03;;;;;;;14.87;7.30;;;23.20;32.30;;;;;;5218529;28;20507;-53
2022/04/23 07:15:34;;;;;;;8.87;8.07;;;24.00;31.90;;;;;;5217147;28;20453;-56
2022/04/23 07:18:06;;;;;;;8.10;7.27;;;25.20;30.40;;;;;;5217730;28;20510;-54
2022/04/23 07:20:39;;;;;;;8.73;7.40;;;25.40;29.40;;;;;;5213867;28;20789;-51
2022/04/23 07:25:59;;;;;;;8.10;7.40;;;25.70;29.70;;;;;;5221388;28;20793;-53
2022/04/23 07:28:29;;;;;;;9.03;8.13;;;25.30;29.20;;;;;;5226854;28;20449;-53
2022/04/23 07:31:02;;;;;;;7.43;6.73;;;24.70;29.70;;;;;;5220164;28;20242;-51
2022/04/23 07:39:11;;;;;;;6.53;5.90;;;22.70;29.50;;;;;;5224495;28;20465;-53
2022/04/23 07:41:43;;;;;;;7.00;6.40;;;21.40;32.10;;;;;;5204883;28;20493;-51
2022/04/23 07:44:14;;;;;;;7.27;6.57;;;21.40;32.10;;;;;;5218993;28;20279;-51
2022/04/23 07:49:17;;;;;;;7.37;6.73;;;20.30;33.40;;;;;;5257318;22;20241;-51
2022/04/23 07:51:49;;;;;;;8.10;7.30;;;19.80;35.30;;;;;;5239975;28;20521;-53
2022/04/23 07:54:20;;;;;;;7.90;7.07;;;20.50;34.90;;;;;;5242544;28;20436;-51
2022/04/23 07:56:50;;;;;;;9.80;7.20;;;21.50;34.10;;;;;;5235743;28;20436;-52
2022/04/23 07:59:22;;;;;;;8.50;7.70;;;22.70;32.70;;;;;;5259482;28;20207;-49
2022/04/23 08:01:52;;;;;;;7.53;6.93;;;23.30;31.50;;;;;;5256854;28;20634;-50
2022/04/23 08:04:23;;;;;;;8.30;7.47;;;23.50;31.40;;;;;;5251970;28;20511;-51
2022/04/23 08:06:53;;;;;;;13.50;7.63;;;22.80;31.50;;;;;;5259941;28;20210;-53
2022/04/23 08:09:24;;;;;;;7.60;6.70;;;21.70;33.00;;;;;;5257437;28;20510;-51
2022/04/23 08:11:55;;;;;;;7.00;5.70;;;22.40;33.10;;;;;;5264121;28;20182;-50
2022/04/23 08:14:25;;;;;;;8.70;6.70;;;23.50;31.50;;;;;;5267346;28;20190;-50
2022/04/23 08:16:56;;;;;;;8.03;7.00;;;23.50;30.70;;;;;;5257037;28;20318;-49
2022/04/23 08:19:26;;;;;;;9.70;6.07;;;23.10;30.70;;;;;;5264725;28;20226;-51
2022/04/23 08:21:57;;;;;;;9.67;7.20;;;22.50;31.10;;;;;;5255392;28;20272;-51
2022/04/23 08:24:31;;;;;;;7.20;6.50;;;21.70;32.60;;;;;;5260026;28;20181;-51
2022/04/23 08:27:02;;;;;;;7.03;6.30;;;21.40;33.90;;;;;;5263795;28;20170;-51
2022/04/23 08:32:21;;;;;;;8.57;7.33;;;21.60;33.80;;;;;;5261375;28;20239;-51
2022/04/23 08:34:53;;;;;;;7.33;6.67;;;21.20;34.10;;;;;;5261653;28;20756;-51
2022/04/23 08:37:24;;;;;;;9.20;7.20;;;20.20;34.80;;;;;;5263181;28;20213;-51
2022/04/23 08:39:55;;;;;;;9.70;7.60;;;18.50;36.70;;;;;;5267199;28;20472;-50
2022/04/23 08:42:26;;;;;;;8.50;7.20;;;17.20;39.00;;;;;;5264215;28;20470;-48
2022/04/23 08:44:57;;;;;;;6.53;5.93;;;16.90;40.60;;;;;;5266483;28;20261;-48
2022/04/23 08:47:28;;;;;;;7.23;6.63;;;16.50;41.20;;;;;;5257385;28;20451;-48
2022/04/23 08:50:01;;;;;;;8.90;6.63;;;16.10;42.40;;;;;;5261343;28;20423;-47
2022/04/23 08:52:32;;;;;;;7.83;7.00;;;16.20;42.50;;;;;;5270154;28;20411;-50
2022/04/23 08:55:06;;;;;;;6.70;6.20;;;16.20;42.40;;;;;;5265908;28;20943;-47
2022/04/23 08:57:37;;;;;;;7.50;6.73;;;15.80;42.50;;;;;;5260920;28;20466;-49
2022/04/23 09:00:08;;;;;;;8.43;7.57;;;15.60;43.40;;;;;;5265503;28;20435;-49
2022/04/23 09:02:41;;;;;;;6.60;6.00;;;15.40;44.00;;;;;;5265200;28;20439;-48
2022/04/23 09:05:14;;;;;;;5.63;5.23;;;15.20;44.40;;;;;;5266452;28;20448;-50
2022/04/23 09:07:53;;;;;;;6.40;5.80;;;15.00;42.60;;;;;;5269606;28;20439;-48
2022/04/23 09:10:45;;;;;;;5.93;5.33;;;14.90;43.10;;;;;;5265244;28;20766;-50
2022/04/23 09:13:27;;;;;;;5.73;4.90;;;15.00;42.00;;;;;;5267513;28;20435;-49
2022/04/23 09:24:46;;;;;;;5.10;4.70;;;14.80;42.00;;;;;;5267946;28;20466;-48
2022/04/23 09:27:17;;;;;;;5.20;4.90;;;14.80;42.50;;;;;;5261410;28;21165;-49
2022/04/23 09:29:58;;;;;;;5.17;4.87;;;14.90;42.50;;;;;;5264595;28;20445;-49
2022/04/23 09:32:29;;;;;;;6.30;5.07;;;15.10;42.10;;;;;;5264554;28;20189;-48
2022/04/23 09:35:05;;;;;;;4.70;4.40;;;15.20;42.00;;;;;;5263306;28;21472;-51
2022/04/23 09:40:28;;;;;;;4.93;4.60;;;15.20;41.30;;;;;;5248622;28;21062;-52
2022/04/23 09:43:00;;;;;;;5.07;4.73;;;15.40;40.90;;;;;;5249741;28;20465;-49
2022/04/23 09:45:33;;;;;;;5.07;4.73;;;15.60;41.30;;;;;;5254414;28;20785;-49
2022/04/23 09:48:03;;;;;;;4.70;4.47;;;15.60;40.20;;;;;;5249598;28;20600;-50
2022/04/23 09:50:38;;;;;;;4.27;4.07;;;15.40;39.50;;;;;;5264322;28;20440;-49
2022/04/23 09:53:14;;;;;;;5.50;5.00;;;15.40;40.10;;;;;;5258420;28;20193;-50
2022/04/23 09:55:46;;;;;;;8.33;4.87;;;15.30;39.80;;;;;;5257306;28;20439;-48
2022/04/23 09:58:17;;;;;;;5.97;5.47;;;15.20;40.60;;;;;;5257974;28;20544;-48
2022/04/23 10:00:48;;;;;;;5.60;5.17;;;15.10;41.00;;;;;;5258119;28;20499;-48
2022/04/23 10:03:23;;;;;;;14.47;5.50;;;15.10;41.20;;;;;;5256960;28;20455;-49
2022/04/23 10:05:54;;;;;;;6.57;5.97;;;15.20;41.10;;;;;;5257506;28;20188;-48
2022/04/23 10:08:26;;;;;;;4.80;4.50;;;15.20;40.60;;;;;;5254126;28;20444;-48
2022/04/23 10:11:18;;;;;;;5.30;4.80;;;15.30;41.00;;;;;;5250033;28;20946;-48
2022/04/23 10:13:55;;;;;;;5.53;5.00;;;15.20;40.90;;;;;;5265118;28;20427;-48
2022/04/23 10:16:29;;;;;;;5.10;4.70;;;15.00;40.90;;;;;;5255258;28;20440;-48
2022/04/23 10:19:00;;;;;;;4.87;4.57;;;15.20;41.40;;;;;;5254066;28;20473;-48
2022/04/23 10:21:39;;;;;;;5.43;5.00;;;15.40;40.70;;;;;;5260401;28;20478;-48
2022/04/23 10:24:33;;;;;;;6.60;4.57;;;15.50;40.80;;;;;;5262562;28;20930;-48
2022/04/23 10:27:07;;;;;;;10.30;5.43;;;15.50;40.80;;;;;;5263945;28;20431;-47
2022/04/23 10:29:38;;;;;;;5.27;4.60;;;15.50;40.60;;;;;;5264019;28;20483;-50
2022/04/23 10:32:09;;;;;;;5.80;5.20;;;15.40;40.70;;;;;;5254450;28;20451;-50
2022/04/23 10:34:40;;;;;;;5.90;4.97;;;15.40;41.30;;;;;;5259551;28;20238;-47
2022/04/23 10:37:25;;;;;;;5.20;4.50;;;15.40;40.90;;;;;;5263392;28;20202;-49
2022/04/23 10:39:56;;;;;;;7.03;4.53;;;15.40;40.50;;;;;;5268464;28;20858;-48
2022/04/23 10:42:28;;;;;;;4.63;4.13;;;15.40;40.80;;;;;;5264605;28;20510;-48
2022/04/23 10:45:06;;;;;;;5.53;5.03;;;15.60;40.70;;;;;;5262253;28;20659;-49
2022/04/23 10:47:39;;;;;;;5.17;4.77;;;15.80;40.20;;;;;;5263993;28;20521;-48
2022/04/23 10:50:20;;;;;;;5.47;5.10;;;15.90;40.50;;;;;;5255870;28;20515;-52
2022/04/23 10:52:53;;;;;;;5.53;5.10;;;16.00;40.40;;;;;;5255278;28;20458;-48
2022/04/23 10:55:23;;;;;;;4.60;4.40;;;16.00;40.10;;;;;;5265598;28;20438;-48
2022/04/23 10:57:55;;;;;;;4.97;4.57;;;16.10;39.80;;;;;;5262750;28;20541;-46
2022/04/23 11:00:30;;;;;;;4.73;4.10;;;16.20;39.70;;;;;;5268970;28;20197;-48
2022/04/23 11:03:08;;;;;;;5.33;4.93;;;16.20;39.80;;;;;;5264392;28;20431;-51
2022/04/23 11:14:52;;;;;;;4.53;3.80;;;16.20;39.70;;;;;;5259107;28;20446;-51
2022/04/23 11:17:24;;;;;;;5.97;5.33;;;16.40;40.10;;;;;;5201190;28;20654;-50
2022/04/23 11:19:55;;;;;;;5.43;5.03;;;16.40;39.70;;;;;;5264581;28;20526;-49
2022/04/23 11:22:26;;;;;;;5.37;4.87;;;16.40;39.50;;;;;;5266876;28;20540;-49
2022/04/23 11:24:58;;;;;;;4.70;4.30;;;16.20;40.20;;;;;;5266080;28;20174;-49
2022/04/23 11:27:32;;;;;;;4.30;4.10;;;16.40;39.40;;;;;;5258177;28;20984;-51
2022/04/23 11:30:05;;;;;;;4.77;4.40;;;16.50;38.60;;;;;;5269672;28;20526;-51
2022/04/23 11:32:38;;;;;;;4.93;4.47;;;16.50;39.00;;;;;;5269014;28;20484;-49
2022/04/23 11:35:09;;;;;;;5.23;4.50;;;16.40;38.60;;;;;;5268277;28;20435;-49
2022/04/23 11:37:40;;;;;;;5.70;4.77;;;16.30;39.00;;;;;;5253950;28;20664;-47
2022/04/23 11:40:16;;;;;;;4.30;4.10;;;16.10;39.00;;;;;;5266159;28;20185;-49
2022/04/23 11:42:47;;;;;;;7.83;4.50;;;16.00;38.90;;;;;;5263237;28;20185;-47
2022/04/23 11:45:19;;;;;;;4.90;4.50;;;15.90;38.90;;;;;;5265278;28;20459;-49
2022/04/23 11:47:50;;;;;;;5.30;4.90;;;15.90;39.10;;;;;;5269322;28;20554;-48
2022/04/23 11:50:22;;;;;;;4.73;4.43;;;16.10;38.90;;;;;;5271636;28;20448;-51
2022/04/23 11:53:01;;;;;;;5.67;5.30;;;16.30;38.80;;;;;;5272150;28;20561;-47
2022/04/23 11:55:32;;;;;;;5.20;4.90;;;16.20;39.00;;;;;;5260570;28;20471;-49
2022/04/23 11:58:05;;;;;;;4.70;4.30;;;16.10;39.40;;;;;;5267941;28;20463;-50
2022/04/23 12:00:35;;;;;;;5.40;5.00;;;16.00;39.40;;;;;;5265149;28;20259;-49
2022/04/23 12:03:08;;;;;;;5.00;4.70;;;15.90;39.90;;;;;;5270295;28;20460;-49
2022/04/23 12:05:38;;;;;;;5.20;4.37;;;16.20;39.40;;;;;;5270233;28;20478;-47
2022/04/23 12:08:20;;;;;;;4.50;4.20;;;16.30;38.70;;;;;;5254405;28;20464;-47
2022/04/23 12:10:50;;;;;;;4.43;4.13;;;16.40;38.10;;;;;;5266406;28;20200;-48
2022/04/23 12:13:21;;;;;;;5.00;4.40;;;16.40;37.40;;;;;;5266514;28;20443;-46
2022/04/23 12:15:51;;;;;;;4.50;4.20;;;16.50;37.60;;;;;;5258741;28;20189;-49
2022/04/23 12:18:23;;;;;;;4.60;4.40;;;16.50;37.70;;;;;;5267839;28;20213;-49
2022/04/23 12:21:04;;;;;;;4.10;3.90;;;16.50;38.00;;;;;;5261026;28;20259;-50
2022/04/23 12:23:41;;;;;;;4.53;4.13;;;16.60;38.40;;;;;;5271398;28;20428;-50
2022/04/23 12:26:13;;;;;;;5.00;4.67;;;16.50;38.20;;;;;;5264720;28;20407;-51
2022/04/23 12:43:21;;;;;;;4.67;4.17;;;17.30;36.60;;;;;;5265253;28;20466;-49
2022/04/23 12:46:09;;;;;;;5.93;4.47;;;17.30;35.80;;;;;;5268811;28;20488;-48
2022/04/23 12:48:59;;;;;;;4.00;3.70;;;17.20;36.50;;;;;;5269641;28;21043;-49
2022/04/23 12:51:29;;;;;;;7.70;3.60;;;17.00;35.90;;;;;;5259046;28;20813;-48
2022/04/23 12:54:00;;;;;;;5.00;4.60;;;16.70;36.60;;;;;;5264820;28;20484;-50
2022/04/23 12:56:34;;;;;;;6.37;3.80;;;16.60;36.80;;;;;;5265622;28;20186;-49
2022/04/23 12:59:05;;;;;;;5.10;3.77;;;16.50;36.70;;;;;;5266015;28;20228;-48
2022/04/23 13:01:37;;;;;;;3.87;3.57;;;16.70;37.10;;;;;;5267394;28;20471;-49
2022/04/23 13:04:13;;;;;;;3.90;3.23;;;16.80;36.80;;;;;;5266641;28;20230;-53
2022/04/23 13:09:33;;;;;;;3.70;3.50;;;16.60;36.80;;;;;;5258486;28;20803;-53
2022/04/23 13:12:05;;;;;;;4.67;4.27;;;16.60;37.10;;;;;;5263666;28;20440;-51
2022/04/23 13:14:36;;;;;;;4.57;4.17;;;16.60;37.20;;;;;;5269588;28;20457;-53
2022/04/23 13:17:06;;;;;;;8.93;3.70;;;16.50;37.40;;;;;;5257070;28;20435;-53
2022/04/23 13:19:37;;;;;;;4.10;3.90;;;16.50;38.40;;;;;;5263474;28;20215;-52
2022/04/23 13:22:09;;;;;;;4.30;3.90;;;16.40;38.30;;;;;;5256857;28;20206;-54
2022/04/23 13:24:40;;;;;;;3.93;3.73;;;16.50;38.10;;;;;;5258406;28;20709;-54
2022/04/23 13:27:11;;;;;;;5.87;3.63;;;16.70;37.30;;;;;;5262483;28;20538;-53
2022/04/23 13:29:41;;;;;;;4.20;4.00;;;16.90;36.60;;;;;;5251079;28;20424;-49
2022/04/23 13:32:12;;;;;;;4.07;3.53;;;17.00;36.40;;;;;;5254238;28;20264;-52
2022/04/23 13:34:43;;;;;;;4.07;3.70;;;16.90;36.40;;;;;;5261956;28;20185;-53
2022/04/23 13:37:14;;;;;;;4.10;3.80;;;16.80;36.40;;;;;;5264908;28;20217;-53
2022/04/23 13:39:45;;;;;;;5.03;4.10;;;16.90;36.50;;;;;;5266202;28;20448;-54
2022/04/23 13:42:17;;;;;;;5.57;3.90;;;16.80;36.90;;;;;;5255990;28;20228;-52
2022/04/23 13:44:48;;;;;;;5.47;3.40;;;16.60;37.20;;;;;;5260823;28;20268;-51
2022/04/23 13:47:20;;;;;;;5.17;4.50;;;16.60;37.80;;;;;;5274488;22;20579;-56
2022/04/23 13:49:51;;;;;;;3.73;3.53;;;16.70;38.00;;;;;;5213011;28;20183;-53
2022/04/23 13:52:22;;;;;;;7.83;4.17;;;16.90;37.50;;;;;;5232326;28;20475;-55
2022/04/23 13:54:52;;;;;;;4.43;4.10;;;16.90;37.20;;;;;;5219391;28;20441;-55
2022/04/23 13:57:24;;;;;;;4.17;3.77;;;16.80;36.60;;;;;;5239135;28;20183;-53
2022/04/23 13:59:54;;;;;;;4.20;3.90;;;16.80;36.90;;;;;;5255235;28;20261;-54